KIPT/IPT METAR and TAF weather

Enter ICAO airport designator
Station Type Date Time Source
KIPT METAR 2022/06/25 21:54 UTC NOAA

KIPT 252154Z 14005KT 10SM FEW070 31/16 A3006 RMK AO2 SLP174 T03110156


Station Type Date Time Source
KIPT Decoded METAR 2022/06/25 21:54 UTC NOAA

WILLIAMSPORT-LYCOMING COUNTY, PA, United States (KIPT) 41-15N 076-55W 164M
Jun 25, 2022 - 05:54 PM EDT / 2022.06.25 2154 UTC
Wind: from the SE (140 degrees) at 6 MPH (5 KT):0
Visibility: 10 mile(s):0
Sky conditions: mostly clear
Temperature: 88.0 F (31.1 C)
Dew Point: 60.1 F (15.6 C)
Relative Humidity: 39%
Pressure (altimeter): 30.06 in. Hg (1017 hPa)
ob: KIPT 252154Z 14005KT 10SM FEW070 31/16 A3006 RMK AO2 SLP174 T03110156
cycle: 22

Station Type Date Time Source
KIPT TAF 2022/06/25 21:06 UTC NOAA

TAF
AMD KIPT 252103Z 2521/2618 14006KT P6SM FEW060
FM261600 16008G16KT P6SM BKN050

Example: see airport list